Observation data for Haskell on 10/20/2019      Previous  Date  Next       Current Mesonet Observations  Soil Data  Daily Summary Page  Observations in Plain Language
KHA1 200500Z 10005KT 16/05 A2984 RMK A01 T01600051  RH  049%=      5-min Rain = 0
KHA1 200505Z 10005KT 16/05 A2984 RMK A01 T01580051  RH  050%=      5-min Rain = 0
KHA1 200510Z 10005KT 16/05 A2984 RMK A01 T01570051  RH  050%=      5-min Rain = 0
KHA1 200515Z 10005KT 16/05 A2984 RMK A01 T01570051  RH  050%=      5-min Rain = 0
KHA1 200520Z 11005KT 16/05 A2983 RMK A01 T01560051  RH  051%=      5-min Rain = 0
KHA1 200525Z 11005KT 16/05 A2983 RMK A01 T01560052  RH  051%=      5-min Rain = 0
KHA1 200530Z 10005KT 16/05 A2983 RMK A01 T01570052  RH  051%=      5-min Rain = 0
KHA1 200535Z 10005KT 16/05 A2983 RMK A01 T01570053  RH  051%=      5-min Rain = 0
KHA1 200540Z 11006KT 16/05 A2983 RMK A01 T01580054  RH  051%=      5-min Rain = 0
KHA1 200545Z 10006KT 16/05 A2983 RMK A01 T01580054  RH  051%=      5-min Rain = 0
KHA1 200550Z 10005KT 16/06 A2982 RMK A01 T01560055  RH  052%=      5-min Rain = 0
KHA1 200555Z 09005KT 16/06 A2982 RMK A01 T01550055  RH  053%=      5-min Rain = 0
KHA1 200600Z 10005KT 15/06 A2982 RMK A01 T01520055  RH  053%=      5-min Rain = 0
KHA1 200605Z 09005KT 15/05 A2982 RMK A01 T01500054  RH  054%=      5-min Rain = 0
KHA1 200610Z 09005KT 15/05 A2982 RMK A01 T01490054  RH  054%=      5-min Rain = 0
KHA1 200615Z 10005KT 15/05 A2982 RMK A01 T01480054  RH  054%=      5-min Rain = 0
KHA1 200620Z 10005KT 15/06 A2982 RMK A01 T01480055  RH  055%=      5-min Rain = 0
KHA1 200625Z 10005KT 15/06 A2982 RMK A01 T01480055  RH  055%=      5-min Rain = 0
KHA1 200630Z 11006KT 15/06 A2981 RMK A01 T01470055  RH  056%=      5-min Rain = 0
KHA1 200635Z 11005KT 14/06 A2982 RMK A01 T01440055  RH  056%=      5-min Rain = 0
KHA1 200640Z 11004KT 14/06 A2982 RMK A01 T01430055  RH  057%=      5-min Rain = 0
KHA1 200645Z 11005KT 14/06 A2981 RMK A01 T01430056  RH  057%=      5-min Rain = 0
KHA1 200650Z 12006KT 14/06 A2981 RMK A01 T01410056  RH  058%=      5-min Rain = 0
KHA1 200655Z 12006KT 14/06 A2981 RMK A01 T01400057  RH  058%=      5-min Rain = 0
KHA1 200700Z 12006KT 14/06 A2981 RMK A01 T01410057  RH  058%=      5-min Rain = 0
KHA1 200705Z 12006KT 14/06 A2981 RMK A01 T01420058  RH  058%=      5-min Rain = 0
KHA1 200710Z 12006KT 14/06 A2981 RMK A01 T01420058  RH  058%=      5-min Rain = 0
KHA1 200715Z 12007KT 14/06 A2981 RMK A01 T01440060  RH  058%=      5-min Rain = 0
KHA1 200720Z 12007KT 15/06 A2981 RMK A01 T01460061  RH  058%=      5-min Rain = 0
KHA1 200725Z 13006KT 15/06 A2981 RMK A01 T01470063  RH  059%=      5-min Rain = 0
KHA1 200730Z 13007KT 15/06 A2981 RMK A01 T01470064  RH  059%=      5-min Rain = 0
KHA1 200735Z 13007KT 15/07 A2981 RMK A01 T01480065  RH  059%=      5-min Rain = 0
KHA1 200740Z 13008KT 15/07 A2981 RMK A01 T01490066  RH  059%=      5-min Rain = 0
KHA1 200745Z 13008KT 15/07 A298 RMK A01 T01500065  RH  058%=      5-min Rain = 0
KHA1 200750Z 13007KT 15/07 A298 RMK A01 T01490066  RH  059%=      5-min Rain = 0
KHA1 200755Z 13005KT 15/07 A298 RMK A01 T01470067  RH  060%=      5-min Rain = 0
KHA1 200800Z 13005KT 15/07 A298 RMK A01 T01450068  RH  061%=      5-min Rain = 0
KHA1 200805Z 13006KT 14/07 A298 RMK A01 T01440069  RH  062%=      5-min Rain = 0
KHA1 200810Z 13007KT 15/07 A298 RMK A01 T01450070  RH  062%=      5-min Rain = 0
KHA1 200815Z 13007KT 14/07 A2979 RMK A01 T01440070  RH  062%=      5-min Rain = 0
KHA1 200820Z 13007KT 14/07 A2979 RMK A01 T01430070  RH  063%=      5-min Rain = 0
KHA1 200825Z 12006KT 14/07 A2979 RMK A01 T01420069  RH  063%=      5-min Rain = 0
KHA1 200830Z 12006KT 14/07 A2979 RMK A01 T01410070  RH  064%=      5-min Rain = 0
KHA1 200835Z 12005KT 14/07 A2979 RMK A01 T01390070  RH  065%=      5-min Rain = 0
KHA1 200840Z 12005KT 14/07 A2979 RMK A01 T01380070  RH  065%=      5-min Rain = 0
KHA1 200845Z 12006KT 14/07 A2979 RMK A01 T01370071  RH  066%=      5-min Rain = 0
KHA1 200850Z 13006KT 14/07 A2979 RMK A01 T01360071  RH  066%=      5-min Rain = 0
KHA1 200855Z 13006KT 14/07 A2979 RMK A01 T01360072  RH  067%=      5-min Rain = 0
KHA1 200900Z 13005KT 14/07 A2979 RMK A01 T01370074  RH  067%=      5-min Rain = 0
KHA1 200905Z 14004KT 14/07 A2978 RMK A01 T01370073  RH  067%=      5-min Rain = 0
KHA1 200910Z 14004KT 14/07 A2979 RMK A01 T01360073  RH  067%=      5-min Rain = 0
KHA1 200915Z 15004KT 14/07 A2978 RMK A01 T01350072  RH  067%=      5-min Rain = 0
KHA1 200920Z 15005KT 14/07 A2978 RMK A01 T01350073  RH  068%=      5-min Rain = 0
KHA1 200925Z 15005KT 13/07 A2979 RMK A01 T01340072  RH  068%=      5-min Rain = 0
KHA1 200930Z 16006KT 13/07 A2979 RMK A01 T01340073  RH  068%=      5-min Rain = 0
KHA1 200935Z 16005KT 13/07 A2979 RMK A01 T01340073  RH  068%=      5-min Rain = 0
KHA1 200940Z 16005KT 13/07 A2979 RMK A01 T01330073  RH  069%=      5-min Rain = 0
KHA1 200945Z 17004KT 13/07 A2979 RMK A01 T01310072  RH  069%=      5-min Rain = 0
KHA1 200950Z 18004KT 12/07 A2979 RMK A01 T01220067  RH  071%=      5-min Rain = 0
KHA1 200955Z 19004KT 11/07 A2979 RMK A01 T01130066  RH  075%=      5-min Rain = 0
KHA1 201000Z 19004KT 11/07 A2979 RMK A01 T01070066  RH  077%=      5-min Rain = 0
KHA1 201005Z 18003KT 11/07 A2979 RMK A01 T01050066  RH  079%=      5-min Rain = 0
KHA1 201010Z 18004KT 10/07 A2979 RMK A01 T01040066  RH  079%=      5-min Rain = 0
KHA1 201015Z 18004KT 10/07 A2979 RMK A01 T01010066  RH  080%=      5-min Rain = 0
KHA1 201020Z 18004KT 10/07 A2979 RMK A01 T01030067  RH  081%=      5-min Rain = 0
KHA1 201025Z 18005KT 10/07 A2979 RMK A01 T01020066  RH  080%=      5-min Rain = 0
KHA1 201030Z 18005KT 11/07 A2979 RMK A01 T01060068  RH  079%=      5-min Rain = 0
KHA1 201035Z 18006KT 11/06 A2979 RMK A01 T01050064  RH  078%=      5-min Rain = 0
KHA1 201040Z 18006KT 11/07 A2979 RMK A01 T01060065  RH  078%=      5-min Rain = 0
KHA1 201045Z 18006KT 11/07 A2979 RMK A01 T01130066  RH  075%=      5-min Rain = 0
KHA1 201050Z 18006KT 12/06 A2979 RMK A01 T01180064  RH  071%=      5-min Rain = 0
KHA1 201055Z 18006KT 12/06 A2979 RMK A01 T01170063  RH  071%=      5-min Rain = 0
KHA1 201100Z 18006KT 12/06 A2979 RMK A01 T01190064  RH  071%=      5-min Rain = 0
KHA1 201105Z 18006KT 12/06 A2979 RMK A01 T01170064  RH  071%=      5-min Rain = 0
KHA1 201110Z 17006KT 12/06 A2979 RMK A01 T01150064  RH  073%=      5-min Rain = 0
KHA1 201115Z 17006KT 12/07 A2979 RMK A01 T01170066  RH  073%=      5-min Rain = 0
KHA1 201120Z 17006KT 12/07 A2979 RMK A01 T01190067  RH  073%=      5-min Rain = 0
KHA1 201125Z 17007KT 12/07 A2979 RMK A01 T01220069  RH  072%=      5-min Rain = 0
KHA1 201130Z 17007KT 12/07 A2979 RMK A01 T01240069  RH  071%=      5-min Rain = 0
KHA1 201135Z 18006KT 12/07 A298 RMK A01 T01240069  RH  071%=      5-min Rain = 0
KHA1 201140Z 17006KT 12/07 A298 RMK A01 T01220069  RH  072%=      5-min Rain = 0
KHA1 201145Z 18006KT 12/07 A298 RMK A01 T01220069  RH  072%=      5-min Rain = 0
KHA1 201150Z 18005KT 12/07 A298 RMK A01 T01210069  RH  072%=      5-min Rain = 0
KHA1 201155Z 18006KT 12/07 A298 RMK A01 T01210069  RH  073%=      5-min Rain = 0
KHA1 201200Z 18006KT 12/07 A298 RMK A01 T01190068  RH  073%=      5-min Rain = 0
KHA1 201205Z 18006KT 12/07 A298 RMK A01 T01170068  RH  074%=      5-min Rain = 0
KHA1 201210Z 18005KT 12/07 A298 RMK A01 T01160068  RH  074%=      5-min Rain = 0
KHA1 201215Z 18005KT 12/07 A298 RMK A01 T01160068  RH  075%=      5-min Rain = 0
KHA1 201220Z 18005KT 12/07 A298 RMK A01 T01150068  RH  075%=      5-min Rain = 0
KHA1 201225Z 17006KT 11/07 A298 RMK A01 T01140068  RH  076%=      5-min Rain = 0
KHA1 201230Z 17006KT 12/07 A2979 RMK A01 T01150070  RH  076%=      5-min Rain = 0
KHA1 201235Z 17006KT 12/07 A298 RMK A01 T01170071  RH  075%=      5-min Rain = 0
KHA1 201240Z 17006KT 12/07 A298 RMK A01 T01180071  RH  075%=      5-min Rain = 0
KHA1 201245Z 17007KT 12/07 A298 RMK A01 T01210073  RH  074%=      5-min Rain = 0
KHA1 201250Z 17007KT 12/07 A298 RMK A01 T01230073  RH  073%=      5-min Rain = 0
KHA1 201255Z 17007KT 12/07 A298 RMK A01 T01240074  RH  073%=      5-min Rain = 0
KHA1 201300Z 17007KT 12/07 A2979 RMK A01 T01230074  RH  074%=      5-min Rain = 0
KHA1 201305Z 18006KT 12/07 A2979 RMK A01 T01230073  RH  074%=      5-min Rain = 0
KHA1 201310Z 18006KT 12/07 A2979 RMK A01 T01210072  RH  074%=      5-min Rain = 0
KHA1 201315Z 18006KT 12/07 A2979 RMK A01 T01200072  RH  075%=      5-min Rain = 0
KHA1 201320Z 17006KT 12/07 A2979 RMK A01 T01200073  RH  075%=      5-min Rain = 0
KHA1 201325Z 17006KT 12/08 A2979 RMK A01 T01230075  RH  074%=      5-min Rain = 0
KHA1 201330Z 17006KT 13/08 A2979 RMK A01 T01270076  RH  073%=      5-min Rain = 0
KHA1 201335Z 17007KT 13/08 A2979 RMK A01 T01310077  RH  072%=      5-min Rain = 0
KHA1 201340Z 17006KT 13/08 A2979 RMK A01 T01320078  RH  072%=      5-min Rain = 0
KHA1 201345Z 17007KT 13/08 A2979 RMK A01 T01340079  RH  071%=      5-min Rain = 0
KHA1 201350Z 17006KT 14/08 A2979 RMK A01 T01370081  RH  071%=      5-min Rain = 0
KHA1 201355Z 17006KT 14/08 A2979 RMK A01 T01390082  RH  070%=      5-min Rain = 0
KHA1 201400Z 17005KT 14/08 A2979 RMK A01 T01420084  RH  070%=      5-min Rain = 0
KHA1 201405Z 17006KT 15/09 A2979 RMK A01 T01450085  RH  069%=      5-min Rain = 0
KHA1 201410Z 17006KT 15/09 A2979 RMK A01 T01500087  RH  068%=      5-min Rain = 0
KHA1 201415Z 16005KT 16/09 A2979 RMK A01 T01550089  RH  067%=      5-min Rain = 0
KHA1 201420Z 16006KT 16/09 A2979 RMK A01 T01590090  RH  065%=      5-min Rain = 0
KHA1 201425Z 16007KT 16/09 A2979 RMK A01 T01630090  RH  064%=      5-min Rain = 0
KHA1 201430Z 16007KT 17/09 A2979 RMK A01 T01670091  RH  063%=      5-min Rain = 0
KHA1 201435Z 17009KT 17/09 A2979 RMK A01 T01700091  RH  062%=      5-min Rain = 0
KHA1 201440Z 17009KT 17/09 A2979 RMK A01 T01720092  RH  061%=      5-min Rain = 0
KHA1 201445Z 17009G14KT 17/09 A2979 RMK A01 T01740093  RH  060%=      5-min Rain = 0
KHA1 201450Z 15007KT 18/09 A2979 RMK A01 T01780094  RH  060%=      5-min Rain = 0
KHA1 201455Z 16007KT 18/10 A2979 RMK A01 T01810096  RH  059%=      5-min Rain = 0
KHA1 201500Z 16008KT 18/10 A2979 RMK A01 T01800095  RH  059%=      5-min Rain = 0
KHA1 201505Z 16009KT 18/09 A2979 RMK A01 T01770094  RH  060%=      5-min Rain = 0
KHA1 201510Z 17009G14KT 18/10 A2979 RMK A01 T01790096  RH  060%=      5-min Rain = 0
KHA1 201515Z 17010KT 18/10 A2979 RMK A01 T01810097  RH  060%=      5-min Rain = 0
KHA1 201520Z 17011KT 18/10 A2979 RMK A01 T01820097  RH  059%=      5-min Rain = 0
KHA1 201525Z 17009KT 19/10 A2979 RMK A01 T01860099  RH  059%=      5-min Rain = 0
KHA1 201530Z 17008KT 19/10 A2979 RMK A01 T01900100  RH  058%=      5-min Rain = 0
KHA1 201535Z 18008G13KT 20/10 A2979 RMK A01 T01970102  RH  056%=      5-min Rain = 0
KHA1 201540Z 18008KT 20/10 A2979 RMK A01 T02020104  RH  055%=      5-min Rain = 0
KHA1 201545Z 19010G15KT 21/11 A2978 RMK A01 T02090105  RH  053%=      5-min Rain = 0
KHA1 201550Z 19009G16KT 22/11 A2978 RMK A01 T02150106  RH  051%=      5-min Rain = 0
KHA1 201555Z 19010KT 22/11 A2978 RMK A01 T02210107  RH  050%=      5-min Rain = 0
KHA1 201600Z 18012G18KT 22/11 A2977 RMK A01 T02230105  RH  049%=      5-min Rain = 0
KHA1 201605Z 18012KT 23/11 A2977 RMK A01 T02280105  RH  047%=      5-min Rain = 0
KHA1 201610Z 18012KT 23/11 A2977 RMK A01 T02310105  RH  047%=      5-min Rain = 0
KHA1 201615Z 18009KT 24/11 A2977 RMK A01 T02350108  RH  046%=      5-min Rain = 0
KHA1 201620Z 18012G17KT 24/11 A2976 RMK A01 T02400108  RH  045%=      5-min Rain = 0
KHA1 201625Z 18014G22KT 24/11 A2976 RMK A01 T02380108  RH  045%=      5-min Rain = 0
KHA1 201630Z 18014G20KT 24/11 A2976 RMK A01 T02420110  RH  045%=      5-min Rain = 0
KHA1 201635Z 18015G20KT 24/11 A2975 RMK A01 T02430112  RH  045%=      5-min Rain = 0
KHA1 201640Z 18014G19KT 24/11 A2975 RMK A01 T02440114  RH  046%=      5-min Rain = 0
KHA1 201645Z 19013G19KT 25/12 A2975 RMK A01 T02500116  RH  045%=      5-min Rain = 0
KHA1 201650Z 20015KT 25/12 A2974 RMK A01 T02520117  RH  044%=      5-min Rain = 0
KHA1 201655Z 19013G20KT 26/12 A2974 RMK A01 T02570122  RH  045%=      5-min Rain = 0
KHA1 201700Z 18016G22KT 26/12 A2974 RMK A01 T02590124  RH  045%=      5-min Rain = 0
KHA1 201705Z 19015G20KT 26/13 A2974 RMK A01 T02620127  RH  045%=      5-min Rain = 0
KHA1 201710Z 20015KT 26/13 A2973 RMK A01 T02640127  RH  045%=      5-min Rain = 0
KHA1 201715Z 19014G20KT 27/13 A2973 RMK A01 T02680130  RH  044%=      5-min Rain = 0
KHA1 201720Z 19014G19KT 27/13 A2973 RMK A01 T02680128  RH  043%=      5-min Rain = 0
KHA1 201725Z 19014G19KT 27/13 A2973 RMK A01 T02710130  RH  043%=      5-min Rain = 0
KHA1 201730Z 19013G19KT 28/13 A2972 RMK A01 T02750130  RH  042%=      5-min Rain = 0
KHA1 201735Z 18013G19KT 28/13 A2972 RMK A01 T02770131  RH  042%=      5-min Rain = 0
KHA1 201740Z 19014KT 28/13 A2972 RMK A01 T02800132  RH  042%=      5-min Rain = 0
KHA1 201745Z 20013G19KT 29/13 A2971 RMK A01 T02850132  RH  041%=      5-min Rain = 0
KHA1 201750Z 20014G21KT 29/13 A2971 RMK A01 T02880129  RH  039%=      5-min Rain = 0
KHA1 201755Z 20011G16KT 29/13 A297 RMK A01 T02930130  RH  038%=      5-min Rain = 0
KHA1 201800Z 20015G21KT 29/12 A297 RMK A01 T02930123  RH  036%=      5-min Rain = 0
KHA1 201805Z 20014G21KT 29/12 A297 RMK A01 T02920122  RH  036%=      5-min Rain = 0
KHA1 201810Z 19013G21KT 30/13 A2969 RMK A01 T02950125  RH  036%=      5-min Rain = 0
KHA1 201815Z 19014G19KT 30/12 A2969 RMK A01 T02970124  RH  036%=      5-min Rain = 0
KHA1 201820Z 20013G19KT 30/12 A2968 RMK A01 T03020119  RH  034%=      5-min Rain = 0
KHA1 201825Z 20013G18KT 30/12 A2968 RMK A01 T03010117  RH  033%=      5-min Rain = 0
KHA1 201830Z 19013G19KT 30/12 A2967 RMK A01 T03000115  RH  033%=      5-min Rain = 0
KHA1 201835Z 20011G18KT 30/11 A2967 RMK A01 T03030114  RH  032%=      5-min Rain = 0
KHA1 201840Z 22014G21KT 31/10 A2967 RMK A01 T03100102  RH  029%=      5-min Rain = 0
KHA1 201845Z 20011G18KT 31/10 A2966 RMK A01 T03080104  RH  029%=      5-min Rain = 0
KHA1 201850Z 21016G24KT 31/10 A2965 RMK A01 T03090100  RH  028%=      5-min Rain = 0
KHA1 201855Z 21016G26KT 31/09 A2965 RMK A01 T03100094  RH  027%=      5-min Rain = 0
KHA1 201900Z 20013G22KT 31/10 A2965 RMK A01 T03140098  RH  027%=      5-min Rain = 0
KHA1 201905Z 21017G23KT 32/09 A2964 RMK A01 T03150093  RH  026%=      5-min Rain = 0
KHA1 201910Z 21015G21KT 32/09 A2964 RMK A01 T03150094  RH  026%=      5-min Rain = 0
KHA1 201915Z 23014G20KT 32/08 A2963 RMK A01 T03200084  RH  024%=      5-min Rain = 0
KHA1 201920Z 21017G26KT 32/08 A2963 RMK A01 T03200084  RH  024%=      5-min Rain = 0
KHA1 201925Z 21018G28KT 32/08 A2962 RMK A01 T03180078  RH  023%=      5-min Rain = 0
KHA1 201930Z 23014G19KT 32/08 A2962 RMK A01 T03190083  RH  024%=      5-min Rain = 0
KHA1 201935Z 21016G27KT 32/08 A2962 RMK A01 T03210080  RH  023%=      5-min Rain = 0
KHA1 201940Z 23017G25KT 32/08 A2962 RMK A01 T03210077  RH  023%=      5-min Rain = 0
KHA1 201945Z 22017G22KT 32/08 A2961 RMK A01 T03210081  RH  023%=      5-min Rain = 0
KHA1 201950Z 22015G22KT 32/08 A2961 RMK A01 T03220080  RH  023%=      5-min Rain = 0
KHA1 201955Z 22015G25KT 32/08 A2961 RMK A01 T03200081  RH  023%=      5-min Rain = 0
KHA1 202000Z 23017G26KT 32/08 A2961 RMK A01 T03220081  RH  023%=      5-min Rain = 0
KHA1 202005Z 21015G21KT 32/08 A2961 RMK A01 T03230083  RH  023%=      5-min Rain = 0
KHA1 202010Z 22014KT 32/09 A296 RMK A01 T03230087  RH  024%=      5-min Rain = 0
KHA1 202015Z 22014G21KT 33/08 A296 RMK A01 T03270081  RH  022%=      5-min Rain = 0
KHA1 202020Z 23019G26KT 33/08 A296 RMK A01 T03250077  RH  022%=      5-min Rain = 0
KHA1 202025Z 22017G22KT 33/08 A296 RMK A01 T03250078  RH  022%=      5-min Rain = 0
KHA1 202030Z 21015G21KT 33/08 A2959 RMK A01 T03250080  RH  023%=      5-min Rain = 0
KHA1 202035Z 22014G19KT 33/08 A2959 RMK A01 T03290080  RH  022%=      5-min Rain = 0
KHA1 202040Z 21018G25KT 33/08 A2959 RMK A01 T03280082  RH  022%=      5-min Rain = 0
KHA1 202045Z 21018G24KT 33/08 A2958 RMK A01 T03270082  RH  023%=      5-min Rain = 0
KHA1 202050Z 21017G23KT 33/08 A2958 RMK A01 T03280084  RH  023%=      5-min Rain = 0
KHA1 202055Z 21017G22KT 33/08 A2958 RMK A01 T03290083  RH  022%=      5-min Rain = 0
KHA1 202100Z 22017G26KT 33/08 A2958 RMK A01 T03330079  RH  021%=      5-min Rain = 0
KHA1 202105Z 22016G24KT 33/07 A2958 RMK A01 T03330074  RH  021%=      5-min Rain = 0
KHA1 202110Z 21019G26KT 33/07 A2957 RMK A01 T03340074  RH  021%=      5-min Rain = 0
KHA1 202115Z 21017G27KT 33/08 A2957 RMK A01 T03330075  RH  021%=      5-min Rain = 0
KHA1 202120Z 21016G23KT 33/07 A2957 RMK A01 T03340074  RH  021%=      5-min Rain = 0
KHA1 202125Z 22018G25KT 34/07 A2957 RMK A01 T03350074  RH  020%=      5-min Rain = 0
KHA1 202130Z 21017G23KT 33/07 A2957 RMK A01 T03340074  RH  020%=      5-min Rain = 0
KHA1 202135Z 22019G27KT 33/07 A2956 RMK A01 T03330071  RH  020%=      5-min Rain = 0
KHA1 202140Z 23016G22KT 33/07 A2957 RMK A01 T03340068  RH  020%=      5-min Rain = 0
KHA1 202145Z 23017G25KT 34/07 A2956 RMK A01 T03350067  RH  019%=      5-min Rain = 0
KHA1 202150Z 22017G29KT 34/07 A2956 RMK A01 T03350068  RH  020%=      5-min Rain = 0
KHA1 202155Z 23018G30KT 33/07 A2957 RMK A01 T03340065  RH  019%=      5-min Rain = 0
KHA1 202200Z 23016G23KT 34/07 A2957 RMK A01 T03360066  RH  019%=      5-min Rain = 0
KHA1 202205Z 23018G25KT 33/07 A2957 RMK A01 T03340065  RH  019%=      5-min Rain = 0
KHA1 202210Z 23014G20KT 33/07 A2957 RMK A01 T03340067  RH  020%=      5-min Rain = 0
KHA1 202215Z 24018G27KT 33/06 A2957 RMK A01 T03280064  RH  020%=      5-min Rain = 0
KHA1 202220Z 23017G24KT 33/07 A2957 RMK A01 T03300065  RH  020%=      5-min Rain = 0
KHA1 202225Z 22015G24KT 33/07 A2956 RMK A01 T03340066  RH  020%=      5-min Rain = 0
KHA1 202230Z 23015G24KT 33/07 A2956 RMK A01 T03340065  RH  019%=      5-min Rain = 0
KHA1 202235Z 24016G24KT 33/06 A2956 RMK A01 T03330060  RH  019%=      5-min Rain = 0
KHA1 202240Z 25016G26KT 33/06 A2956 RMK A01 T03310060  RH  019%=      5-min Rain = 0
KHA1 202245Z 24016G21KT 33/06 A2956 RMK A01 T03310062  RH  019%=      5-min Rain = 0
KHA1 202250Z 24018G27KT 33/06 A2956 RMK A01 T03300062  RH  019%=      5-min Rain = 0
KHA1 202255Z 24017G24KT 33/06 A2956 RMK A01 T03280061  RH  019%=      5-min Rain = 0
KHA1 202300Z 24016G22KT 33/06 A2956 RMK A01 T03260061  RH  020%=      5-min Rain = 0
KHA1 202305Z 24015G22KT 33/06 A2956 RMK A01 T03250060  RH  020%=      5-min Rain = 0
KHA1 202310Z 24015G20KT 32/06 A2956 RMK A01 T03240060  RH  020%=      5-min Rain = 0
KHA1 202315Z 24015G21KT 32/06 A2956 RMK A01 T03210061  RH  020%=      5-min Rain = 0
KHA1 202320Z 24015G21KT 32/06 A2956 RMK A01 T03200061  RH  020%=      5-min Rain = 0
KHA1 202325Z 24015G22KT 32/06 A2956 RMK A01 T03170061  RH  021%=      5-min Rain = 0
KHA1 202330Z 24013G19KT 32/06 A2956 RMK A01 T03160062  RH  021%=      5-min Rain = 0
KHA1 202335Z 24013G18KT 31/06 A2956 RMK A01 T03140062  RH  021%=      5-min Rain = 0
KHA1 202340Z 24013G19KT 31/06 A2956 RMK A01 T03120063  RH  021%=      5-min Rain = 0
KHA1 202345Z 23010KT 31/06 A2956 RMK A01 T03090064  RH  022%=      5-min Rain = 0
KHA1 202350Z 23010KT 31/06 A2956 RMK A01 T03060064  RH  022%=      5-min Rain = 0
KHA1 202355Z 23010KT 30/06 A2956 RMK A01 T03030064  RH  023%=      5-min Rain = 0
KHA1 210000Z 23010KT 30/06 A2956 RMK A01 T03010064  RH  023%=      5-min Rain = 0
KHA1 210005Z 23009KT 30/06 A2957 RMK A01 T02980064  RH  024%=      5-min Rain = 0
KHA1 210010Z 23008G13KT 30/07 A2957 RMK A01 T02960065  RH  024%=      5-min Rain = 0
KHA1 210015Z 23008KT 29/07 A2956 RMK A01 T02920065  RH  025%=      5-min Rain = 0
KHA1 210020Z 23007KT 29/07 A2956 RMK A01 T02900066  RH  025%=      5-min Rain = 0
KHA1 210025Z 23006KT 28/07 A2956 RMK A01 T02820066  RH  026%=      5-min Rain = 0
KHA1 210030Z 23006KT 28/07 A2957 RMK A01 T02750067  RH  027%=      5-min Rain = 0
KHA1 210035Z 22006KT 27/07 A2957 RMK A01 T02670068  RH  029%=      5-min Rain = 0
KHA1 210040Z 22006KT 26/07 A2957 RMK A01 T02610067  RH  030%=      5-min Rain = 0
KHA1 210045Z 22005KT 26/07 A2957 RMK A01 T02570066  RH  030%=      5-min Rain = 0
KHA1 210050Z 22005KT 26/07 A2957 RMK A01 T02550066  RH  031%=      5-min Rain = 0
KHA1 210055Z 21005KT 25/07 A2957 RMK A01 T02510067  RH  032%=      5-min Rain = 0
KHA1 210100Z 21005KT 25/07 A2958 RMK A01 T02460071  RH  034%=      5-min Rain = 0
KHA1 210105Z 20006KT 24/07 A2958 RMK A01 T02440072  RH  034%=      5-min Rain = 0
KHA1 210110Z 20005KT 24/07 A2958 RMK A01 T02410073  RH  035%=      5-min Rain = 0
KHA1 210115Z 21006KT 24/08 A2958 RMK A01 T02360075  RH  037%=      5-min Rain = 0
KHA1 210120Z 24006KT 24/08 A2959 RMK A01 T02380075  RH  036%=      5-min Rain = 0
KHA1 210125Z 26006KT 24/07 A2959 RMK A01 T02350073  RH  036%=      5-min Rain = 0
KHA1 210130Z 25006KT 23/07 A296 RMK A01 T02290073  RH  038%=      5-min Rain = 0
KHA1 210135Z 26006KT 23/08 A296 RMK A01 T02290075  RH  038%=      5-min Rain = 0
KHA1 210140Z 25007KT 23/08 A296 RMK A01 T02270076  RH  039%=      5-min Rain = 0
KHA1 210145Z 25007KT 24/07 A296 RMK A01 T02370074  RH  036%=      5-min Rain = 0
KHA1 210150Z 26007KT 23/08 A296 RMK A01 T02310075  RH  037%=      5-min Rain = 0
KHA1 210155Z 27008KT 23/07 A296 RMK A01 T02270074  RH  038%=      5-min Rain = 0
KHA1 210200Z 28007KT 23/07 A296 RMK A01 T02320070  RH  036%=      5-min Rain = 0
KHA1 210205Z 27007KT 23/07 A296 RMK A01 T02290071  RH  037%=      5-min Rain = 0
KHA1 210210Z 28008KT 23/07 A296 RMK A01 T02280070  RH  037%=      5-min Rain = 0
KHA1 210215Z 28009KT 24/07 A296 RMK A01 T02370065  RH  034%=      5-min Rain = 0
KHA1 210220Z 28008KT 24/06 A2961 RMK A01 T02410062  RH  032%=      5-min Rain = 0
KHA1 210225Z 28009KT 24/06 A2961 RMK A01 T02440061  RH  032%=      5-min Rain = 0
KHA1 210230Z 28010KT 25/06 A2961 RMK A01 T02480061  RH  031%=      5-min Rain = 0
KHA1 210235Z 28011KT 26/06 A2961 RMK A01 T02550055  RH  028%=      5-min Rain = 0
KHA1 210240Z 28012KT 26/05 A2961 RMK A01 T02610051  RH  027%=      5-min Rain = 0
KHA1 210245Z 29013G20KT 26/05 A2961 RMK A01 T02610048  RH  026%=      5-min Rain = 0
KHA1 210250Z 30017G25KT 26/03 A2962 RMK A01 T02630034  RH  023%=      5-min Rain = 0
KHA1 210255Z 31015G20KT 26/03 A2962 RMK A01 T02600029  RH  023%=      5-min Rain = 0
KHA1 210300Z 31012G17KT 26/03 A2962 RMK A01 T02550026  RH  023%=      5-min Rain = 0
KHA1 210305Z 31012G19KT 25/02 A2963 RMK A01 T02490021  RH  023%=      5-min Rain = 0
KHA1 210310Z 31014KT 25/01 A2963 RMK A01 T02490010  RH  021%=      5-min Rain = 0
KHA1 210315Z 31015G21KT 25/00 A2963 RMK A01 T02490000  RH  020%=      5-min Rain = 0
KHA1 210320Z 31016G21KT 25/M01 A2964 RMK A01 T02501009  RH  018%=      5-min Rain = 0
KHA1 210325Z 31015KT 25/M02 A2964 RMK A01 T02481016  RH  018%=      5-min Rain = 0
KHA1 210330Z 31016G21KT 25/M02 A2965 RMK A01 T02481023  RH  017%=      5-min Rain = 0
KHA1 210335Z 32016G22KT 25/M03 A2965 RMK A01 T02471030  RH  016%=      5-min Rain = 0
KHA1 210340Z 32020G30KT 25/M04 A2966 RMK A01 T02471039  RH  015%=      5-min Rain = 0
KHA1 210345Z 32022G28KT 25/M05 A2966 RMK A01 T02461046  RH  014%=      5-min Rain = 0
KHA1 210350Z 32020G31KT 24/M06 A2966 RMK A01 T02441056  RH  013%=      5-min Rain = 0
KHA1 210355Z 32020G27KT 24/M06 A2966 RMK A01 T02401060  RH  013%=      5-min Rain = 0
KHA1 210400Z 32018G24KT 24/M06 A2967 RMK A01 T02381063  RH  013%=      5-min Rain = 0
KHA1 210405Z 32017G23KT 23/M06 A2967 RMK A01 T02331060  RH  014%=      5-min Rain = 0
KHA1 210410Z 33017G24KT 23/M06 A2968 RMK A01 T02301058  RH  014%=      5-min Rain = 0
KHA1 210415Z 34018G27KT 23/M04 A2968 RMK A01 T02261043  RH  016%=      5-min Rain = 0
KHA1 210420Z 34019G24KT 22/M03 A2969 RMK A01 T02221029  RH  019%=      5-min Rain = 0
KHA1 210425Z 33019G25KT 22/M03 A2969 RMK A01 T02171025  RH  020%=      5-min Rain = 0
KHA1 210430Z 34020G28KT 21/M02 A297 RMK A01 T02131023  RH  020%=      5-min Rain = 0
KHA1 210435Z 34019G26KT 21/M02 A297 RMK A01 T02091024  RH  021%=      5-min Rain = 0
KHA1 210440Z 34016G24KT 20/M02 A2971 RMK A01 T02031023  RH  022%=      5-min Rain = 0
KHA1 210445Z 35021G29KT 20/M02 A2972 RMK A01 T01971022  RH  023%=      5-min Rain = 0
KHA1 210450Z 36020G28KT 19/M02 A2972 RMK A01 T01931022  RH  024%=      5-min Rain = 0
KHA1 210455Z 36019G27KT 19/M02 A2973 RMK A01 T01891021  RH  024%=      5-min Rain = 0

Page generated in 0.0097 seconds.